Ride Results

AraratPony Club Endurance Sunday (09-08-2015)
Ride distance: 80.0 km

Outcomes - AraratPony Club Endurance Sunday (09-08-2015)
Division No. of Entries Retired / DNE Completed Withdrawn Ineligible V/O Percentage Completed
HW 1 - 1 - - - 100.00%
MW 15 - 13 - - 2 86.67%
LW 12 - 9 1 - 2 75.00%
JN 4 - 3 1 - - 75.00%
Totals 32 - 26 2 - 4 81.25%
Results - AraratPony Club Endurance Sunday (09-08-2015)
No. Rider Horse Place Time Leg Speeds Total
Km/Hr
H/R bpm
Heavyweight
255 Julie Lofts Ethereal Park Shadow Dancer 1 (BC) 7:44:00 10.8, 9.8 10.34 45, 45, 52 (Avg:48)
Middleweight
126 Wendy Riha Castlebar Chivas 1 (BC) 5:05:00 14.4, 17.2 15.74 36, 43, 50 (Avg:46)
160 Jo-Anne Francis Sierra Lodge Camelot 2 5:54:00 14.2, 12.9 13.56 33, 40, 48 (Avg:44)
757 Angie Turner Lindall Footloose 3 6:08:00 12.9, 13.1 13.04 31, 43, 51 (Avg:47)
286 Jason Rathbone Concherto FF 4 6:30:00 12.6, 11.9 12.31 39, 41, 47 (Avg:44)
758 Kerryn Agnew Performance Park Menphis Rain 5 6:41:00 11.7, 12.2 11.97 46, 42, 42 (Avg:42)
756 Rebecca Jeffrey Cheatar Al Zaheem 6 6:42:00 11.9, 11.8 11.94 44, 50, 47 (Avg:48)
21 Frith Szigethy-Gyula Windradyne Magnum 7 6:53:00 12.4, 10.8 11.62 40, 44, 49 (Avg:46)
103 Jess Welsh Pyrenees Pharaoh 8 6:58:00 11.2, 11.7 11.48 28, 31, 43 (Avg:37)
6 Julie Woods Ennerdale Omaha 8 6:58:00 11.2, 11.7 11.48 38, 47, 44 (Avg:45)
351 Steve Blackhurst Rafeeq 10 7:15:00 11.4, 10.6 11.03 30, 39, 51 (Avg:45)
273 Georgie Hart Dejarn Khan 10 7:15:00 11.4, 10.6 11.03 32, 41, 43 (Avg:42)
755 Joanne Masterson Kato 10 7:15:00 11.4, 10.6 11.03 32, 38, 48 (Avg:43)
23 Brittnee Smith Miss Pasha 13 7:57:00 9.9, 10.1 10.06 37, 44, 48 (Avg:46)
293 Daniel Noble Doogie Howser Heart Rate L2 0:00:00 11.8, 11.6 - 31, 45, 71 (Avg:58)
256 Marieke Featonby Fairview Ethereal Dream Lame L1 0:00:00 17.0 - 34, 44 (Avg:44)
Lightweight
744 Ingrid Ambrosiussen Box Hill Meziah 1 (BC) 5:14:00 14.9, 15.5 15.29 38, 45, 46 (Avg:45)
219 Caroline Noble Top Fancy Trianna 1 5:14:00 14.9, 15.6 15.29 36, 48, 48 (Avg:48)
283 Jayne Rathbone Ken U Spot the Difference 1 5:14:00 14.9, 15.6 15.29 32, 39, 46 (Avg:42)
3 Caley Rees Zemperial 4 6:08:00 12.9, 13.1 13.04 33, 41, 42 (Avg:41)
264 Sarah Doyle Keysha Lovica 5 6:42:00 12.4, 11.4 11.94 36, 45, 47 (Avg:46)
91 Kim Noble Warrawee Naaziq 6 6:49:00 11.8, 11.6 11.74 37, 46, 48 (Avg:47)
151 Kasey Thomas Rocky Point Pale Lazulite 7 6:59:00 11.9, 11.0 11.46 39, 48, 51 (Avg:49)
278 Gina Thompson Dualling 8 7:15:00 11.4, 10.6 11.03 35, 43, 44 (Avg:43)
114 Helen Spencer Imoan Party Girl 9 7:44:00 10.8, 9.8 10.34 36, 39, 46 (Avg:42)
61 Lois Sharam Musical Gully Carousel Heart Rate L2 0:00:00 10.8, 9.8 - 32, 44, 64 (Avg:54)
234 Jacki Liuzzi Khayem Requisite Withdrawn L1 0:00:00 - - 34, 41 (Avg:41)
747 Felix Morio Jan's Au Lait Lame L1 0:00:00 11.9 - 36, 41 (Avg:41)
Junior
262 Bonnie Player Quartz Hill Farm Eragon 1 (BC) 6:36:00 11.8, 12.4 12.12 47, 48, 52 (Avg:50)
292 Alison Noble Roswick Dilhurst 2 6:49:00 11.8, 11.6 11.74 38, 38, 43 (Avg:40)
745 Mohammed Al-Tamimi Zues PP 3 7:58:00 9.9, 10.0 10.04 42, 45, 48 (Avg:46)
748 Diesel Featonby Shimira Withdrawn L1 0:00:00 - - 37, 43 (Avg:43)